createdAt,value
2023-04-25T00:00:21.148Z,3.80
2023-04-25T00:10:23.308Z,3.80
2023-04-25T00:20:25.833Z,3.40
2023-04-25T00:30:27.982Z,3.57
2023-04-25T00:40:30.244Z,4.83
2023-04-25T00:50:34.594Z,4.70
2023-04-25T01:00:37.468Z,5.07
2023-04-25T01:10:39.571Z,3.87
2023-04-25T01:20:42.908Z,4.43
2023-04-25T01:30:45.593Z,4.10
2023-04-25T01:40:50.316Z,5.07
2023-04-25T01:50:54.775Z,4.30
2023-04-25T02:00:56.924Z,5.40
2023-04-25T02:11:04.173Z,5.53
2023-04-25T02:21:13.470Z,5.07
2023-04-25T02:31:15.835Z,6.30
2023-04-25T02:41:17.989Z,7.73
2023-04-25T02:51:20.156Z,8.40
2023-04-25T03:01:22.324Z,6.87
2023-04-25T03:11:26.445Z,7.00
2023-04-25T03:21:28.821Z,5.80
2023-04-25T03:31:31.534Z,6.00
2023-04-25T03:41:34.366Z,4.93
2023-04-25T03:51:41.504Z,4.97
2023-04-25T04:01:44.241Z,5.23
2023-04-25T04:11:46.504Z,6.10
2023-04-25T04:21:48.924Z,3.40
2023-04-25T04:31:53.611Z,2.33
2023-04-25T04:41:56.370Z,1.33
2023-04-25T04:52:17.050Z,2.00
2023-04-25T05:02:41.469Z,2.40
2023-04-25T05:13:04.010Z,2.43
2023-04-25T05:23:24.522Z,2.47
2023-04-25T05:33:35.227Z,2.63
2023-04-25T05:43:37.389Z,2.60
2023-04-25T05:53:56.041Z,2.70
2023-04-25T06:03:58.828Z,2.73
2023-04-25T06:14:01.866Z,4.00
2023-04-25T06:24:04.808Z,4.37
2023-04-25T06:34:07.113Z,4.10
2023-04-25T06:44:13.572Z,4.10
2023-04-25T06:54:29.731Z,4.93
2023-04-25T07:04:39.796Z,4.37
2023-04-25T07:14:42.334Z,2.97
2023-04-25T07:24:49.493Z,3.57
2023-04-25T07:34:54.423Z,3.83
2023-04-25T07:44:56.729Z,2.97
2023-04-25T07:54:59.601Z,2.90
2023-04-25T08:05:13.037Z,3.73
2023-04-25T08:15:18.523Z,2.67
2023-04-25T08:25:20.736Z,2.40
2023-04-25T08:35:23.876Z,2.03
2023-04-25T08:45:28.721Z,2.03
2023-04-25T08:55:31.434Z,1.23
2023-04-25T09:05:35.622Z,1.87
2023-04-25T09:15:55.081Z,1.63
2023-04-25T09:26:24.175Z,1.17
2023-04-25T09:36:28.054Z,1.30
2023-04-25T09:46:56.850Z,1.20
2023-04-25T09:57:20.627Z,1.40
2023-04-25T10:07:27.158Z,1.10
2023-04-25T10:17:30.177Z,0.90
2023-04-25T10:27:32.837Z,0.67
2023-04-25T10:37:35.988Z,0.63
2023-04-25T10:47:45.414Z,0.70
2023-04-25T10:57:49.358Z,0.80
2023-04-25T11:08:03.913Z,0.70
2023-04-25T11:18:09.537Z,0.73
2023-04-25T11:28:11.697Z,0.77
2023-04-25T11:38:13.855Z,0.60
2023-04-25T11:48:16.195Z,0.60
2023-04-25T11:58:18.394Z,0.20
2023-04-25T12:08:20.655Z,0.50
2023-04-25T12:18:25.189Z,0.43
2023-04-25T12:28:32.176Z,0.68
2023-04-25T12:38:37.894Z,0.43
2023-04-25T12:48:40.026Z,0.70
2023-04-25T12:58:42.156Z,0.33
2023-04-25T13:08:44.381Z,0.20
2023-04-25T13:18:46.676Z,0.73
2023-04-25T13:28:48.922Z,0.60
2023-04-25T13:38:51.208Z,0.43
2023-04-25T13:48:59.650Z,0.33
2023-04-25T13:59:05.172Z,0.33
2023-04-25T14:09:08.091Z,0.53
2023-04-25T14:19:10.201Z,0.40
2023-04-25T14:29:13.027Z,0.82
2023-04-25T14:39:15.775Z,0.52
2023-04-25T14:49:17.928Z,0.57
2023-04-25T14:59:21.349Z,0.40
2023-04-25T15:09:24.931Z,0.83
2023-04-25T15:19:27.150Z,0.30
2023-04-25T15:29:29.815Z,0.53
2023-04-25T15:39:32.017Z,0.50
2023-04-25T15:49:34.129Z,0.40
2023-04-25T15:59:36.257Z,0.40
2023-04-25T16:09:38.360Z,0.53
2023-04-25T16:19:40.643Z,0.50
2023-04-25T16:29:43.041Z,0.60
2023-04-25T16:39:45.851Z,0.43
2023-04-25T16:49:47.960Z,0.40
2023-04-25T16:59:50.115Z,0.37
2023-04-25T17:09:52.313Z,0.50
2023-04-25T17:19:54.386Z,0.57
2023-04-25T17:29:56.618Z,0.88
2023-04-25T17:39:58.765Z,0.90
2023-04-25T17:50:01.178Z,0.60
2023-04-25T18:00:05.920Z,0.70
2023-04-25T18:10:14.595Z,0.50
2023-04-25T18:20:16.886Z,0.50
2023-04-25T18:30:19.090Z,0.30
2023-04-25T18:40:21.230Z,0.80
2023-04-25T18:50:26.273Z,0.40
2023-04-25T19:00:29.055Z,0.70
2023-04-25T19:10:31.170Z,0.47
2023-04-25T19:20:33.477Z,1.17
2023-04-25T19:30:35.842Z,0.60
2023-04-25T19:40:38.790Z,0.57
2023-04-25T19:50:40.987Z,1.00
2023-04-25T20:00:43.038Z,1.00
2023-04-25T20:10:45.245Z,0.97
2023-04-25T20:20:47.713Z,0.80
2023-04-25T20:30:50.381Z,0.70
2023-04-25T20:40:53.830Z,0.80
2023-04-25T20:50:57.020Z,0.90
2023-04-25T21:00:59.142Z,0.60
2023-04-25T21:11:01.338Z,1.00
2023-04-25T21:21:04.235Z,0.80
2023-04-25T21:31:06.648Z,1.20
2023-04-25T21:41:08.723Z,1.43
2023-04-25T21:51:10.824Z,1.10
2023-04-25T22:01:12.885Z,0.90
2023-04-25T22:11:15.039Z,1.03
2023-04-25T22:21:17.850Z,1.07
2023-04-25T22:31:20.617Z,1.47
2023-04-25T22:41:23.605Z,1.80
2023-04-25T22:51:25.908Z,1.43
2023-04-25T23:01:28.983Z,1.53
2023-04-25T23:11:31.143Z,1.53
2023-04-25T23:21:33.323Z,1.67
2023-04-25T23:31:36.354Z,2.13
2023-04-25T23:41:38.606Z,1.87
2023-04-25T23:51:40.636Z,1.60
